sensor_id;sensor_type;location;lat;lon;timestamp;temperature;humidity
35325;DHT22;35135;47.510;19.036;2023-09-18T00:00:47;26.40;55.30
35325;DHT22;35135;47.510;19.036;2023-09-18T00:03:19;26.30;55.10
35325;DHT22;35135;47.510;19.036;2023-09-18T00:05:47;26.30;55.30
35325;DHT22;35135;47.510;19.036;2023-09-18T00:08:17;26.30;55.30
35325;DHT22;35135;47.510;19.036;2023-09-18T00:10:47;26.40;55.40
35325;DHT22;35135;47.510;19.036;2023-09-18T00:13:13;26.40;55.20
35325;DHT22;35135;47.510;19.036;2023-09-18T00:15:39;26.40;55.30
35325;DHT22;35135;47.510;19.036;2023-09-18T00:18:06;26.40;55.30
35325;DHT22;35135;47.510;19.036;2023-09-18T00:20:33;26.40;55.20
35325;DHT22;35135;47.510;19.036;2023-09-18T00:22:59;26.40;55.20
35325;DHT22;35135;47.510;19.036;2023-09-18T00:25:24;26.40;55.20
35325;DHT22;35135;47.510;19.036;2023-09-18T00:27:50;26.40;55.20
35325;DHT22;35135;47.510;19.036;2023-09-18T00:30:17;26.30;55.30
35325;DHT22;35135;47.510;19.036;2023-09-18T00:32:43;26.40;55.20
35325;DHT22;35135;47.510;19.036;2023-09-18T00:35:08;26.40;55.20
35325;DHT22;35135;47.510;19.036;2023-09-18T00:37:34;26.30;55.10
35325;DHT22;35135;47.510;19.036;2023-09-18T00:40:02;26.30;55.20
35325;DHT22;35135;47.510;19.036;2023-09-18T00:42:30;26.30;55.20
35325;DHT22;35135;47.510;19.036;2023-09-18T00:44:56;26.30;55.30
35325;DHT22;35135;47.510;19.036;2023-09-18T00:47:21;26.20;55.50
35325;DHT22;35135;47.510;19.036;2023-09-18T00:49:48;26.10;55.50
35325;DHT22;35135;47.510;19.036;2023-09-18T00:52:15;26.10;55.80
35325;DHT22;35135;47.510;19.036;2023-09-18T00:54:43;26.10;55.90
35325;DHT22;35135;47.510;19.036;2023-09-18T00:57:09;26.10;55.90
35325;DHT22;35135;47.510;19.036;2023-09-18T00:59:36;26.10;55.80
35325;DHT22;35135;47.510;19.036;2023-09-18T01:02:02;26.10;55.70
35325;DHT22;35135;47.510;19.036;2023-09-18T01:04:30;26.20;55.60
35325;DHT22;35135;47.510;19.036;2023-09-18T01:07:01;26.20;55.50
35325;DHT22;35135;47.510;19.036;2023-09-18T01:09:30;26.20;55.40
35325;DHT22;35135;47.510;19.036;2023-09-18T01:12:27;26.30;55.40
35325;DHT22;35135;47.510;19.036;2023-09-18T01:14:57;26.30;55.20
35325;DHT22;35135;47.510;19.036;2023-09-18T01:17:26;26.30;55.30
35325;DHT22;35135;47.510;19.036;2023-09-18T01:19:51;26.30;55.20
35325;DHT22;35135;47.510;19.036;2023-09-18T01:22:19;26.20;55.30
35325;DHT22;35135;47.510;19.036;2023-09-18T01:24:46;26.30;55.30
35325;DHT22;35135;47.510;19.036;2023-09-18T01:27:14;26.20;55.10
35325;DHT22;35135;47.510;19.036;2023-09-18T01:29:42;26.10;55.40
35325;DHT22;35135;47.510;19.036;2023-09-18T01:32:08;26.10;55.60
35325;DHT22;35135;47.510;19.036;2023-09-18T01:34:37;26.10;55.60
35325;DHT22;35135;47.510;19.036;2023-09-18T01:37:05;26.10;55.50
35325;DHT22;35135;47.510;19.036;2023-09-18T01:39:32;26.10;55.60
35325;DHT22;35135;47.510;19.036;2023-09-18T01:42:01;26.10;55.50
35325;DHT22;35135;47.510;19.036;2023-09-18T01:44:28;26.10;55.50
35325;DHT22;35135;47.510;19.036;2023-09-18T01:46:54;26.10;55.50
35325;DHT22;35135;47.510;19.036;2023-09-18T01:49:33;26.10;55.40
35325;DHT22;35135;47.510;19.036;2023-09-18T01:51:59;26.20;55.30
35325;DHT22;35135;47.510;19.036;2023-09-18T01:54:25;26.10;55.40
35325;DHT22;35135;47.510;19.036;2023-09-18T01:56:51;26.00;55.40
35325;DHT22;35135;47.510;19.036;2023-09-18T01:59:18;26.00;55.70
35325;DHT22;35135;47.510;19.036;2023-09-18T02:01:44;26.00;55.60
35325;DHT22;35135;47.510;19.036;2023-09-18T02:04:10;25.90;55.70
35325;DHT22;35135;47.510;19.036;2023-09-18T02:06:36;25.80;56.10
35325;DHT22;35135;47.510;19.036;2023-09-18T02:09:02;25.80;56.30
35325;DHT22;35135;47.510;19.036;2023-09-18T02:11:29;25.80;56.20
35325;DHT22;35135;47.510;19.036;2023-09-18T02:13:55;25.70;56.30
35325;DHT22;35135;47.510;19.036;2023-09-18T02:16:22;25.70;56.40
35325;DHT22;35135;47.510;19.036;2023-09-18T02:18:50;25.70;56.40
35325;DHT22;35135;47.510;19.036;2023-09-18T02:21:20;25.70;56.20
35325;DHT22;35135;47.510;19.036;2023-09-18T02:23:48;25.70;56.30
35325;DHT22;35135;47.510;19.036;2023-09-18T02:26:14;25.70;56.30
35325;DHT22;35135;47.510;19.036;2023-09-18T02:28:39;25.70;56.30
35325;DHT22;35135;47.510;19.036;2023-09-18T02:31:05;25.70;56.10
35325;DHT22;35135;47.510;19.036;2023-09-18T02:33:31;25.80;56.10
35325;DHT22;35135;47.510;19.036;2023-09-18T02:35:56;25.80;56.20
35325;DHT22;35135;47.510;19.036;2023-09-18T02:38:22;25.80;56.00
35325;DHT22;35135;47.510;19.036;2023-09-18T02:40:48;25.80;56.20
35325;DHT22;35135;47.510;19.036;2023-09-18T02:43:14;25.80;56.10
35325;DHT22;35135;47.510;19.036;2023-09-18T02:45:40;25.90;56.10
35325;DHT22;35135;47.510;19.036;2023-09-18T02:48:06;25.90;55.80
35325;DHT22;35135;47.510;19.036;2023-09-18T02:50:31;25.90;55.60
35325;DHT22;35135;47.510;19.036;2023-09-18T02:52:57;25.80;56.00
35325;DHT22;35135;47.510;19.036;2023-09-18T02:55:23;25.90;56.00
35325;DHT22;35135;47.510;19.036;2023-09-18T02:57:48;25.90;56.00
35325;DHT22;35135;47.510;19.036;2023-09-18T03:00:14;25.90;55.90
35325;DHT22;35135;47.510;19.036;2023-09-18T03:02:40;25.90;55.80
35325;DHT22;35135;47.510;19.036;2023-09-18T03:05:06;25.90;55.90
35325;DHT22;35135;47.510;19.036;2023-09-18T03:07:32;25.90;55.90
35325;DHT22;35135;47.510;19.036;2023-09-18T03:09:57;25.90;55.70
35325;DHT22;35135;47.510;19.036;2023-09-18T03:12:23;26.00;55.70
35325;DHT22;35135;47.510;19.036;2023-09-18T03:14:48;26.00;55.70
35325;DHT22;35135;47.510;19.036;2023-09-18T03:17:14;26.00;55.50
35325;DHT22;35135;47.510;19.036;2023-09-18T03:19:40;26.10;55.50
35325;DHT22;35135;47.510;19.036;2023-09-18T03:22:05;26.00;55.20
35325;DHT22;35135;47.510;19.036;2023-09-18T03:24:31;25.90;54.90
35325;DHT22;35135;47.510;19.036;2023-09-18T03:26:57;25.80;55.70
35325;DHT22;35135;47.510;19.036;2023-09-18T03:29:22;25.80;55.80
35325;DHT22;35135;47.510;19.036;2023-09-18T03:31:48;25.80;55.90
35325;DHT22;35135;47.510;19.036;2023-09-18T03:34:14;25.80;55.40
35325;DHT22;35135;47.510;19.036;2023-09-18T03:36:39;25.70;55.30
35325;DHT22;35135;47.510;19.036;2023-09-18T03:39:05;25.70;55.60
35325;DHT22;35135;47.510;19.036;2023-09-18T03:41:31;25.70;55.80
35325;DHT22;35135;47.510;19.036;2023-09-18T03:44:00;25.70;55.70
35325;DHT22;35135;47.510;19.036;2023-09-18T03:46:26;25.70;55.40
35325;DHT22;35135;47.510;19.036;2023-09-18T03:48:52;25.60;55.70
35325;DHT22;35135;47.510;19.036;2023-09-18T03:51:18;25.60;55.40
35325;DHT22;35135;47.510;19.036;2023-09-18T03:53:44;25.50;55.60
35325;DHT22;35135;47.510;19.036;2023-09-18T03:56:10;25.50;55.90
35325;DHT22;35135;47.510;19.036;2023-09-18T03:58:36;25.50;55.30
35325;DHT22;35135;47.510;19.036;2023-09-18T04:01:02;25.40;55.70
35325;DHT22;35135;47.510;19.036;2023-09-18T04:03:27;25.20;55.60
35325;DHT22;35135;47.510;19.036;2023-09-18T04:05:53;25.10;56.20
35325;DHT22;35135;47.510;19.036;2023-09-18T04:08:19;25.00;56.40
35325;DHT22;35135;47.510;19.036;2023-09-18T04:10:44;25.10;56.80
35325;DHT22;35135;47.510;19.036;2023-09-18T04:13:10;25.10;56.50
35325;DHT22;35135;47.510;19.036;2023-09-18T04:15:37;25.20;56.60
35325;DHT22;35135;47.510;19.036;2023-09-18T04:18:04;25.30;56.30
35325;DHT22;35135;47.510;19.036;2023-09-18T04:20:30;25.20;56.10
35325;DHT22;35135;47.510;19.036;2023-09-18T04:23:22;25.20;56.10
35325;DHT22;35135;47.510;19.036;2023-09-18T04:25:48;25.30;56.40
35325;DHT22;35135;47.510;19.036;2023-09-18T04:28:18;25.30;56.00
35325;DHT22;35135;47.510;19.036;2023-09-18T04:30:45;25.30;55.90
35325;DHT22;35135;47.510;19.036;2023-09-18T04:33:12;25.20;55.40
35325;DHT22;35135;47.510;19.036;2023-09-18T04:35:38;25.10;56.20
35325;DHT22;35135;47.510;19.036;2023-09-18T04:38:08;25.20;55.80
35325;DHT22;35135;47.510;19.036;2023-09-18T04:40:36;25.10;55.80
35325;DHT22;35135;47.510;19.036;2023-09-18T04:43:02;25.10;55.60
35325;DHT22;35135;47.510;19.036;2023-09-18T04:45:30;25.10;56.30
35325;DHT22;35135;47.510;19.036;2023-09-18T04:47:56;25.10;56.00
35325;DHT22;35135;47.510;19.036;2023-09-18T04:50:22;25.10;55.90
35325;DHT22;35135;47.510;19.036;2023-09-18T04:52:47;25.20;55.90
35325;DHT22;35135;47.510;19.036;2023-09-18T04:55:14;25.20;56.30
35325;DHT22;35135;47.510;19.036;2023-09-18T04:57:40;25.20;56.00
35325;DHT22;35135;47.510;19.036;2023-09-18T05:00:06;25.20;55.80
35325;DHT22;35135;47.510;19.036;2023-09-18T05:02:38;25.10;55.80
35325;DHT22;35135;47.510;19.036;2023-09-18T05:05:04;25.00;56.40
35325;DHT22;35135;47.510;19.036;2023-09-18T05:07:30;25.00;56.20
35325;DHT22;35135;47.510;19.036;2023-09-18T05:09:58;25.00;56.60
35325;DHT22;35135;47.510;19.036;2023-09-18T05:12:24;25.00;56.30
35325;DHT22;35135;47.510;19.036;2023-09-18T05:14:50;25.00;56.30
35325;DHT22;35135;47.510;19.036;2023-09-18T05:17:17;25.00;56.50
35325;DHT22;35135;47.510;19.036;2023-09-18T05:19:43;25.00;56.40
35325;DHT22;35135;47.510;19.036;2023-09-18T05:22:09;24.90;56.60
35325;DHT22;35135;47.510;19.036;2023-09-18T05:24:39;25.00;57.00
35325;DHT22;35135;47.510;19.036;2023-09-18T05:27:05;25.10;56.50
35325;DHT22;35135;47.510;19.036;2023-09-18T05:29:34;25.20;56.70
35325;DHT22;35135;47.510;19.036;2023-09-18T05:32:03;25.30;56.00
35325;DHT22;35135;47.510;19.036;2023-09-18T05:34:29;25.30;55.80
35325;DHT22;35135;47.510;19.036;2023-09-18T05:36:55;25.30;55.90
35325;DHT22;35135;47.510;19.036;2023-09-18T05:39:20;25.30;55.90
35325;DHT22;35135;47.510;19.036;2023-09-18T05:41:46;25.30;55.80
35325;DHT22;35135;47.510;19.036;2023-09-18T05:44:12;25.30;55.70
35325;DHT22;35135;47.510;19.036;2023-09-18T05:46:37;25.30;55.70
35325;DHT22;35135;47.510;19.036;2023-09-18T05:49:03;25.50;55.50
35325;DHT22;35135;47.510;19.036;2023-09-18T05:51:30;25.60;55.20
35325;DHT22;35135;47.510;19.036;2023-09-18T05:53:55;25.70;54.80
35325;DHT22;35135;47.510;19.036;2023-09-18T05:56:21;25.70;54.40
35325;DHT22;35135;47.510;19.036;2023-09-18T05:58:48;25.80;54.50
35325;DHT22;35135;47.510;19.036;2023-09-18T06:01:14;25.80;54.00
35325;DHT22;35135;47.510;19.036;2023-09-18T06:03:39;25.80;53.90
35325;DHT22;35135;47.510;19.036;2023-09-18T06:06:05;25.80;54.00
35325;DHT22;35135;47.510;19.036;2023-09-18T06:08:31;25.80;53.70
35325;DHT22;35135;47.510;19.036;2023-09-18T06:10:58;25.90;54.00
35325;DHT22;35135;47.510;19.036;2023-09-18T06:13:25;25.90;53.80
35325;DHT22;35135;47.510;19.036;2023-09-18T06:15:52;26.00;53.60
35325;DHT22;35135;47.510;19.036;2023-09-18T06:18:20;26.10;53.50
35325;DHT22;35135;47.510;19.036;2023-09-18T06:20:51;26.10;53.20
35325;DHT22;35135;47.510;19.036;2023-09-18T06:23:17;26.10;53.40
35325;DHT22;35135;47.510;19.036;2023-09-18T06:25:42;26.10;53.30
35325;DHT22;35135;47.510;19.036;2023-09-18T06:28:08;26.20;53.10
35325;DHT22;35135;47.510;19.036;2023-09-18T06:30:33;26.20;53.10
35325;DHT22;35135;47.510;19.036;2023-09-18T06:33:02;26.30;53.10
35325;DHT22;35135;47.510;19.036;2023-09-18T06:35:29;26.30;52.90
35325;DHT22;35135;47.510;19.036;2023-09-18T06:37:55;26.30;53.30
35325;DHT22;35135;47.510;19.036;2023-09-18T06:40:24;26.30;52.80
35325;DHT22;35135;47.510;19.036;2023-09-18T06:42:50;26.30;52.70
35325;DHT22;35135;47.510;19.036;2023-09-18T06:45:17;26.40;52.70
35325;DHT22;35135;47.510;19.036;2023-09-18T06:47:43;26.40;52.60
35325;DHT22;35135;47.510;19.036;2023-09-18T06:50:08;26.40;52.40
35325;DHT22;35135;47.510;19.036;2023-09-18T06:52:35;26.40;53.00
35325;DHT22;35135;47.510;19.036;2023-09-18T06:55:01;26.50;52.30
35325;DHT22;35135;47.510;19.036;2023-09-18T06:57:26;26.40;52.80
35325;DHT22;35135;47.510;19.036;2023-09-18T06:59:53;26.50;52.30
35325;DHT22;35135;47.510;19.036;2023-09-18T07:02:18;26.60;52.30
35325;DHT22;35135;47.510;19.036;2023-09-18T07:04:44;26.60;52.30
35325;DHT22;35135;47.510;19.036;2023-09-18T07:07:14;26.60;52.20
35325;DHT22;35135;47.510;19.036;2023-09-18T07:09:42;26.60;52.30
35325;DHT22;35135;47.510;19.036;2023-09-18T07:12:08;26.50;51.90
35325;DHT22;35135;47.510;19.036;2023-09-18T07:14:35;26.60;52.00
35325;DHT22;35135;47.510;19.036;2023-09-18T07:17:01;26.50;51.90
35325;DHT22;35135;47.510;19.036;2023-09-18T07:19:27;26.50;52.10
35325;DHT22;35135;47.510;19.036;2023-09-18T07:21:53;26.50;52.20
35325;DHT22;35135;47.510;19.036;2023-09-18T07:24:19;26.50;52.10
35325;DHT22;35135;47.510;19.036;2023-09-18T07:26:47;26.60;52.20
35325;DHT22;35135;47.510;19.036;2023-09-18T07:29:16;26.60;52.10
35325;DHT22;35135;47.510;19.036;2023-09-18T07:31:43;26.60;52.20
35325;DHT22;35135;47.510;19.036;2023-09-18T07:34:09;26.60;52.10
35325;DHT22;35135;47.510;19.036;2023-09-18T07:36:35;26.60;52.10
35325;DHT22;35135;47.510;19.036;2023-09-18T07:39:01;26.60;52.00
35325;DHT22;35135;47.510;19.036;2023-09-18T07:41:27;26.60;52.10
35325;DHT22;35135;47.510;19.036;2023-09-18T07:43:53;26.60;52.00
35325;DHT22;35135;47.510;19.036;2023-09-18T07:46:18;26.60;52.10
35325;DHT22;35135;47.510;19.036;2023-09-18T07:48:44;26.60;52.00
35325;DHT22;35135;47.510;19.036;2023-09-18T07:51:13;26.70;52.10
35325;DHT22;35135;47.510;19.036;2023-09-18T07:53:39;26.70;52.10
35325;DHT22;35135;47.510;19.036;2023-09-18T07:56:05;26.60;52.10
35325;DHT22;35135;47.510;19.036;2023-09-18T07:58:31;26.60;52.00
35325;DHT22;35135;47.510;19.036;2023-09-18T08:00:59;26.60;52.10
35325;DHT22;35135;47.510;19.036;2023-09-18T08:03:27;26.60;52.10
35325;DHT22;35135;47.510;19.036;2023-09-18T08:05:54;26.60;52.20
35325;DHT22;35135;47.510;19.036;2023-09-18T08:08:20;26.60;52.30
35325;DHT22;35135;47.510;19.036;2023-09-18T08:10:47;26.60;52.30
35325;DHT22;35135;47.510;19.036;2023-09-18T08:13:13;26.60;52.20
35325;DHT22;35135;47.510;19.036;2023-09-18T08:15:39;26.60;52.20
35325;DHT22;35135;47.510;19.036;2023-09-18T08:18:05;26.70;52.30
35325;DHT22;35135;47.510;19.036;2023-09-18T08:20:31;26.70;52.40
35325;DHT22;35135;47.510;19.036;2023-09-18T08:22:58;26.60;52.30
35325;DHT22;35135;47.510;19.036;2023-09-18T08:25:26;26.60;52.40
35325;DHT22;35135;47.510;19.036;2023-09-18T08:27:52;26.60;52.40
35325;DHT22;35135;47.510;19.036;2023-09-18T08:30:18;26.60;52.50
35325;DHT22;35135;47.510;19.036;2023-09-18T08:32:46;26.70;52.50
35325;DHT22;35135;47.510;19.036;2023-09-18T08:35:13;26.60;52.60
35325;DHT22;35135;47.510;19.036;2023-09-18T08:37:42;26.60;52.60
35325;DHT22;35135;47.510;19.036;2023-09-18T08:40:12;26.60;52.80
35325;DHT22;35135;47.510;19.036;2023-09-18T08:42:44;26.60;52.70
35325;DHT22;35135;47.510;19.036;2023-09-18T08:45:22;26.60;52.80
35325;DHT22;35135;47.510;19.036;2023-09-18T08:47:48;26.60;52.80
35325;DHT22;35135;47.510;19.036;2023-09-18T08:50:15;26.60;53.00
35325;DHT22;35135;47.510;19.036;2023-09-18T08:52:41;26.60;53.00
35325;DHT22;35135;47.510;19.036;2023-09-18T08:55:08;26.60;53.10
35325;DHT22;35135;47.510;19.036;2023-09-18T08:57:34;26.60;53.20
35325;DHT22;35135;47.510;19.036;2023-09-18T09:00:01;26.60;53.00
35325;DHT22;35135;47.510;19.036;2023-09-18T09:02:33;26.60;53.10
35325;DHT22;35135;47.510;19.036;2023-09-18T09:04:58;26.60;53.10
35325;DHT22;35135;47.510;19.036;2023-09-18T09:07:25;26.60;53.00
35325;DHT22;35135;47.510;19.036;2023-09-18T09:09:51;26.60;53.20
35325;DHT22;35135;47.510;19.036;2023-09-18T09:12:46;26.60;53.10
35325;DHT22;35135;47.510;19.036;2023-09-18T09:15:12;26.60;53.20
35325;DHT22;35135;47.510;19.036;2023-09-18T09:17:39;26.60;53.20
35325;DHT22;35135;47.510;19.036;2023-09-18T09:20:12;26.60;53.20
35325;DHT22;35135;47.510;19.036;2023-09-18T09:22:41;26.60;53.20
35325;DHT22;35135;47.510;19.036;2023-09-18T09:25:27;26.60;53.30
35325;DHT22;35135;47.510;19.036;2023-09-18T09:27:54;26.60;53.30
35325;DHT22;35135;47.510;19.036;2023-09-18T09:30:25;26.60;53.30
35325;DHT22;35135;47.510;19.036;2023-09-18T09:32:53;26.70;53.30
35325;DHT22;35135;47.510;19.036;2023-09-18T09:35:37;26.60;53.30
35325;DHT22;35135;47.510;19.036;2023-09-18T09:38:09;26.60;53.30
35325;DHT22;35135;47.510;19.036;2023-09-18T09:40:36;26.70;53.30
35325;DHT22;35135;47.510;19.036;2023-09-18T09:43:03;26.70;53.40
35325;DHT22;35135;47.510;19.036;2023-09-18T09:45:33;26.70;53.60
35325;DHT22;35135;47.510;19.036;2023-09-18T09:48:03;26.70;53.50
35325;DHT22;35135;47.510;19.036;2023-09-18T09:50:32;26.70;53.50
35325;DHT22;35135;47.510;19.036;2023-09-18T09:52:58;26.60;53.50
35325;DHT22;35135;47.510;19.036;2023-09-18T09:57:58;26.70;53.50
35325;DHT22;35135;47.510;19.036;2023-09-18T10:00:34;26.70;53.60
35325;DHT22;35135;47.510;19.036;2023-09-18T10:03:10;26.70;53.50
35325;DHT22;35135;47.510;19.036;2023-09-18T10:05:44;26.70;53.60
35325;DHT22;35135;47.510;19.036;2023-09-18T10:08:16;26.70;53.50
35325;DHT22;35135;47.510;19.036;2023-09-18T10:10:46;26.80;53.60
35325;DHT22;35135;47.510;19.036;2023-09-18T10:15:45;26.70;53.50
35325;DHT22;35135;47.510;19.036;2023-09-18T10:18:27;26.70;53.50
35325;DHT22;35135;47.510;19.036;2023-09-18T10:24:30;26.70;53.70
35325;DHT22;35135;47.510;19.036;2023-09-18T10:26:55;26.70;53.60
35325;DHT22;35135;47.510;19.036;2023-09-18T10:29:22;26.70;53.40
35325;DHT22;35135;47.510;19.036;2023-09-18T10:31:52;26.70;53.60
35325;DHT22;35135;47.510;19.036;2023-09-18T10:34:20;26.80;53.60
35325;DHT22;35135;47.510;19.036;2023-09-18T10:36:50;26.80;53.70
35325;DHT22;35135;47.510;19.036;2023-09-18T10:39:16;26.80;53.50
35325;DHT22;35135;47.510;19.036;2023-09-18T10:41:49;26.80;53.50
35325;DHT22;35135;47.510;19.036;2023-09-18T10:44:16;26.80;53.40
35325;DHT22;35135;47.510;19.036;2023-09-18T10:46:47;26.80;53.40
35325;DHT22;35135;47.510;19.036;2023-09-18T10:49:17;26.80;53.50
35325;DHT22;35135;47.510;19.036;2023-09-18T10:51:43;26.80;53.60
35325;DHT22;35135;47.510;19.036;2023-09-18T10:54:10;26.80;53.40
35325;DHT22;35135;47.510;19.036;2023-09-18T10:56:36;26.80;53.50
35325;DHT22;35135;47.510;19.036;2023-09-18T10:59:05;26.80;53.60
35325;DHT22;35135;47.510;19.036;2023-09-18T11:01:31;26.80;53.50
35325;DHT22;35135;47.510;19.036;2023-09-18T11:04:03;26.80;53.40
35325;DHT22;35135;47.510;19.036;2023-09-18T11:06:29;26.80;53.50
35325;DHT22;35135;47.510;19.036;2023-09-18T11:09:05;26.80;53.50
35325;DHT22;35135;47.510;19.036;2023-09-18T11:11:32;26.80;53.50
35325;DHT22;35135;47.510;19.036;2023-09-18T11:14:01;26.80;53.40
35325;DHT22;35135;47.510;19.036;2023-09-18T11:21:31;26.90;53.40
35325;DHT22;35135;47.510;19.036;2023-09-18T11:24:05;26.90;53.30
35325;DHT22;35135;47.510;19.036;2023-09-18T11:26:36;26.90;53.30
35325;DHT22;35135;47.510;19.036;2023-09-18T11:29:04;26.90;53.20
35325;DHT22;35135;47.510;19.036;2023-09-18T11:31:51;27.00;53.30
35325;DHT22;35135;47.510;19.036;2023-09-18T11:34:38;26.90;53.20
35325;DHT22;35135;47.510;19.036;2023-09-18T11:37:32;27.00;53.20
35325;DHT22;35135;47.510;19.036;2023-09-18T11:39:58;26.90;53.10
35325;DHT22;35135;47.510;19.036;2023-09-18T11:42:25;26.90;53.10
35325;DHT22;35135;47.510;19.036;2023-09-18T11:44:54;26.90;53.20
35325;DHT22;35135;47.510;19.036;2023-09-18T11:47:25;26.90;53.70
35325;DHT22;35135;47.510;19.036;2023-09-18T11:49:59;27.00;53.20
35325;DHT22;35135;47.510;19.036;2023-09-18T11:52:29;27.00;53.10
35325;DHT22;35135;47.510;19.036;2023-09-18T11:54:57;27.00;53.10
35325;DHT22;35135;47.510;19.036;2023-09-18T11:57:23;27.00;53.10
35325;DHT22;35135;47.510;19.036;2023-09-18T11:59:50;27.00;53.10
35325;DHT22;35135;47.510;19.036;2023-09-18T12:02:30;27.00;53.00
35325;DHT22;35135;47.510;19.036;2023-09-18T12:05:20;27.00;52.90
35325;DHT22;35135;47.510;19.036;2023-09-18T12:07:47;27.00;52.90
35325;DHT22;35135;47.510;19.036;2023-09-18T12:10:18;27.00;52.90
35325;DHT22;35135;47.510;19.036;2023-09-18T12:12:44;27.00;52.80
35325;DHT22;35135;47.510;19.036;2023-09-18T12:15:16;27.00;52.70
35325;DHT22;35135;47.510;19.036;2023-09-18T12:17:42;27.00;52.70
35325;DHT22;35135;47.510;19.036;2023-09-18T12:20:18;27.10;52.70
35325;DHT22;35135;47.510;19.036;2023-09-18T12:22:50;27.10;52.60
35325;DHT22;35135;47.510;19.036;2023-09-18T12:25:16;27.10;52.70
35325;DHT22;35135;47.510;19.036;2023-09-18T12:27:46;27.10;52.70
35325;DHT22;35135;47.510;19.036;2023-09-18T12:30:12;27.10;52.60
35325;DHT22;35135;47.510;19.036;2023-09-18T12:32:40;27.10;52.60
35325;DHT22;35135;47.510;19.036;2023-09-18T12:35:07;27.10;52.60
35325;DHT22;35135;47.510;19.036;2023-09-18T12:37:34;27.10;52.50
35325;DHT22;35135;47.510;19.036;2023-09-18T12:40:00;27.10;52.50
35325;DHT22;35135;47.510;19.036;2023-09-18T12:42:26;27.10;52.50
35325;DHT22;35135;47.510;19.036;2023-09-18T12:44:52;27.10;52.50
35325;DHT22;35135;47.510;19.036;2023-09-18T12:47:20;27.10;52.50
35325;DHT22;35135;47.510;19.036;2023-09-18T12:49:45;27.10;52.30
35325;DHT22;35135;47.510;19.036;2023-09-18T12:52:12;27.10;52.30
35325;DHT22;35135;47.510;19.036;2023-09-18T12:54:43;27.10;52.30
35325;DHT22;35135;47.510;19.036;2023-09-18T12:57:19;27.10;52.10
35325;DHT22;35135;47.510;19.036;2023-09-18T12:59:45;27.10;52.10
35325;DHT22;35135;47.510;19.036;2023-09-18T13:02:17;27.10;51.90
35325;DHT22;35135;47.510;19.036;2023-09-18T13:04:54;27.10;51.90
35325;DHT22;35135;47.510;19.036;2023-09-18T13:07:20;27.10;51.90
35325;DHT22;35135;47.510;19.036;2023-09-18T13:10:00;27.20;51.90
35325;DHT22;35135;47.510;19.036;2023-09-18T13:12:39;27.10;51.70
35325;DHT22;35135;47.510;19.036;2023-09-18T13:15:06;27.20;51.90
35325;DHT22;35135;47.510;19.036;2023-09-18T13:17:46;27.20;51.90
35325;DHT22;35135;47.510;19.036;2023-09-18T13:20:16;27.20;51.90
35325;DHT22;35135;47.510;19.036;2023-09-18T13:22:47;27.20;51.70
35325;DHT22;35135;47.510;19.036;2023-09-18T13:25:25;27.20;51.70
35325;DHT22;35135;47.510;19.036;2023-09-18T13:27:53;27.20;51.60
35325;DHT22;35135;47.510;19.036;2023-09-18T13:30:19;27.20;51.60
35325;DHT22;35135;47.510;19.036;2023-09-18T13:32:48;27.20;51.60
35325;DHT22;35135;47.510;19.036;2023-09-18T13:35:17;27.20;51.60
35325;DHT22;35135;47.510;19.036;2023-09-18T13:37:44;27.20;51.70
35325;DHT22;35135;47.510;19.036;2023-09-18T13:40:10;27.20;51.60
35325;DHT22;35135;47.510;19.036;2023-09-18T13:42:37;27.20;51.50
35325;DHT22;35135;47.510;19.036;2023-09-18T13:45:06;27.20;51.50
35325;DHT22;35135;47.510;19.036;2023-09-18T13:47:33;27.20;51.40
35325;DHT22;35135;47.510;19.036;2023-09-18T13:50:00;27.20;51.70
35325;DHT22;35135;47.510;19.036;2023-09-18T13:52:27;27.20;51.80
35325;DHT22;35135;47.510;19.036;2023-09-18T13:54:53;27.20;51.80
35325;DHT22;35135;47.510;19.036;2023-09-18T13:57:19;27.20;51.80
35325;DHT22;35135;47.510;19.036;2023-09-18T13:59:45;27.20;51.80
35325;DHT22;35135;47.510;19.036;2023-09-18T14:02:12;27.20;51.80
35325;DHT22;35135;47.510;19.036;2023-09-18T14:04:38;27.20;51.70
35325;DHT22;35135;47.510;19.036;2023-09-18T14:07:04;27.20;51.60
35325;DHT22;35135;47.510;19.036;2023-09-18T14:09:30;27.20;51.60
35325;DHT22;35135;47.510;19.036;2023-09-18T14:11:55;27.20;51.60
35325;DHT22;35135;47.510;19.036;2023-09-18T14:14:24;27.20;51.70
35325;DHT22;35135;47.510;19.036;2023-09-18T14:16:51;27.20;51.70
35325;DHT22;35135;47.510;19.036;2023-09-18T14:19:16;27.20;51.70
35325;DHT22;35135;47.510;19.036;2023-09-18T14:21:42;27.20;51.60
35325;DHT22;35135;47.510;19.036;2023-09-18T14:24:09;27.20;51.50
35325;DHT22;35135;47.510;19.036;2023-09-18T14:26:35;27.20;51.50
35325;DHT22;35135;47.510;19.036;2023-09-18T14:29:09;27.20;51.50
35325;DHT22;35135;47.510;19.036;2023-09-18T14:31:36;27.20;51.50
35325;DHT22;35135;47.510;19.036;2023-09-18T14:34:02;27.20;51.40
35325;DHT22;35135;47.510;19.036;2023-09-18T14:36:29;27.20;51.50
35325;DHT22;35135;47.510;19.036;2023-09-18T14:38:55;27.20;51.40
35325;DHT22;35135;47.510;19.036;2023-09-18T14:41:23;27.20;51.40
35325;DHT22;35135;47.510;19.036;2023-09-18T14:43:50;27.20;51.40
35325;DHT22;35135;47.510;19.036;2023-09-18T14:46:17;27.20;51.50
35325;DHT22;35135;47.510;19.036;2023-09-18T14:48:42;27.20;51.50
35325;DHT22;35135;47.510;19.036;2023-09-18T14:51:08;27.20;51.50
35325;DHT22;35135;47.510;19.036;2023-09-18T14:53:33;27.20;51.50
35325;DHT22;35135;47.510;19.036;2023-09-18T14:56:00;27.20;51.50
35325;DHT22;35135;47.510;19.036;2023-09-18T14:58:26;27.20;51.40
35325;DHT22;35135;47.510;19.036;2023-09-18T15:00:53;27.20;51.40
35325;DHT22;35135;47.510;19.036;2023-09-18T15:03:18;27.20;51.40
35325;DHT22;35135;47.510;19.036;2023-09-18T15:05:44;27.20;51.50
35325;DHT22;35135;47.510;19.036;2023-09-18T15:08:10;27.20;51.30
35325;DHT22;35135;47.510;19.036;2023-09-18T15:10:37;27.20;51.30
35325;DHT22;35135;47.510;19.036;2023-09-18T15:13:03;27.20;51.30
35325;DHT22;35135;47.510;19.036;2023-09-18T15:15:28;27.20;51.20
35325;DHT22;35135;47.510;19.036;2023-09-18T15:17:54;27.20;51.30
35325;DHT22;35135;47.510;19.036;2023-09-18T15:20:21;27.20;51.20
35325;DHT22;35135;47.510;19.036;2023-09-18T15:22:50;27.20;51.20
35325;DHT22;35135;47.510;19.036;2023-09-18T15:25:15;27.20;51.20
35325;DHT22;35135;47.510;19.036;2023-09-18T15:27:42;27.20;51.30
35325;DHT22;35135;47.510;19.036;2023-09-18T15:30:08;27.20;51.30
35325;DHT22;35135;47.510;19.036;2023-09-18T15:32:52;27.20;51.20